createdAt,value
2016-08-26T00:00:04.389Z,0
2016-08-26T00:01:05.592Z,0
2016-08-26T00:02:05.164Z,0
2016-08-26T00:03:05.169Z,0
2016-08-26T00:04:05.001Z,0
2016-08-26T00:05:04.450Z,0
2016-08-26T00:06:04.960Z,0
2016-08-26T00:07:04.423Z,0
2016-08-26T00:08:05.130Z,0
2016-08-26T00:09:04.437Z,0
2016-08-26T00:10:04.405Z,0
2016-08-26T00:11:04.742Z,0
2016-08-26T00:12:04.718Z,0
2016-08-26T00:13:05.269Z,0
2016-08-26T00:14:04.440Z,0
2016-08-26T00:15:05.050Z,0
2016-08-26T00:16:05.112Z,0
2016-08-26T00:17:04.618Z,0
2016-08-26T00:18:04.425Z,0
2016-08-26T00:19:04.982Z,0
2016-08-26T00:20:05.191Z,0
2016-08-26T00:21:04.456Z,0
2016-08-26T00:22:04.423Z,0
2016-08-26T00:23:05.465Z,0
2016-08-26T00:24:04.444Z,0
2016-08-26T00:25:04.406Z,0
2016-08-26T00:26:04.606Z,0
2016-08-26T00:27:04.635Z,0
2016-08-26T00:28:04.440Z,0
2016-08-26T00:29:04.416Z,0
2016-08-26T00:30:04.753Z,0
2016-08-26T00:31:04.438Z,0
2016-08-26T00:32:04.392Z,0
2016-08-26T00:33:04.413Z,0
2016-08-26T00:34:04.422Z,0
2016-08-26T00:35:04.443Z,0
2016-08-26T00:36:04.459Z,0
2016-08-26T00:37:04.423Z,0
2016-08-26T00:38:04.439Z,0
2016-08-26T00:39:04.482Z,0
2016-08-26T00:40:04.469Z,0
2016-08-26T00:41:04.410Z,0
2016-08-26T00:42:04.414Z,0
2016-08-26T00:43:04.425Z,0
2016-08-26T00:44:04.457Z,0
2016-08-26T00:45:04.441Z,0
2016-08-26T00:46:04.426Z,0
2016-08-26T00:47:04.442Z,0
2016-08-26T00:48:04.455Z,0
2016-08-26T00:49:04.430Z,0
2016-08-26T00:50:04.468Z,0
2016-08-26T00:51:04.517Z,0
2016-08-26T00:52:04.449Z,0
2016-08-26T00:53:04.429Z,0
2016-08-26T00:54:04.444Z,0
2016-08-26T00:55:04.472Z,0
2016-08-26T00:56:04.442Z,0
2016-08-26T00:57:04.440Z,0
2016-08-26T00:58:04.451Z,0
2016-08-26T00:59:04.440Z,0
2016-08-26T01:00:04.424Z,0
2016-08-26T01:01:04.487Z,0
2016-08-26T01:02:04.460Z,0
2016-08-26T01:03:04.445Z,0
2016-08-26T01:04:04.476Z,0
2016-08-26T01:05:04.538Z,0
2016-08-26T01:06:04.580Z,0
2016-08-26T01:07:04.420Z,0
2016-08-26T01:08:04.531Z,0
2016-08-26T01:09:04.484Z,0
2016-08-26T01:10:04.475Z,0
2016-08-26T01:11:04.435Z,0
2016-08-26T01:12:04.482Z,0
2016-08-26T01:13:04.569Z,0
2016-08-26T01:14:04.459Z,0
2016-08-26T01:15:04.482Z,0
2016-08-26T01:16:04.442Z,0
2016-08-26T01:17:05.633Z,0
2016-08-26T01:18:04.456Z,0
2016-08-26T01:19:04.520Z,0
2016-08-26T01:20:04.514Z,0
2016-08-26T01:21:04.476Z,0
2016-08-26T01:22:04.459Z,0
2016-08-26T01:23:04.459Z,0
2016-08-26T01:24:04.440Z,0
2016-08-26T01:25:04.550Z,0
2016-08-26T01:26:04.510Z,0
2016-08-26T01:27:04.487Z,0
2016-08-26T01:28:04.491Z,0
2016-08-26T01:29:04.641Z,0
2016-08-26T01:30:04.493Z,0
2016-08-26T01:31:04.632Z,0
2016-08-26T01:32:04.534Z,0
2016-08-26T01:33:04.547Z,0
2016-08-26T01:34:04.550Z,0
2016-08-26T01:35:04.472Z,0
2016-08-26T01:36:04.521Z,0
2016-08-26T01:37:04.488Z,0
2016-08-26T01:38:04.487Z,0
2016-08-26T01:39:04.501Z,0
2016-08-26T01:40:04.473Z,0
2016-08-26T01:41:04.485Z,0
2016-08-26T01:42:04.492Z,0
2016-08-26T01:43:04.491Z,0
2016-08-26T01:44:04.489Z,0
2016-08-26T01:45:04.504Z,0
2016-08-26T01:46:04.489Z,0
2016-08-26T01:47:05.498Z,0
2016-08-26T01:48:04.525Z,0
2016-08-26T01:49:04.605Z,0
2016-08-26T01:50:04.503Z,0
2016-08-26T01:51:04.489Z,0
2016-08-26T01:52:04.508Z,0
2016-08-26T01:53:04.578Z,0
2016-08-26T01:54:04.504Z,0
2016-08-26T01:55:04.488Z,0
2016-08-26T01:56:04.487Z,0
2016-08-26T01:57:04.624Z,0
2016-08-26T01:58:04.505Z,0
2016-08-26T01:59:04.485Z,0
2016-08-26T02:00:04.488Z,0
2016-08-26T02:01:04.480Z,0
2016-08-26T02:02:04.520Z,0
2016-08-26T02:03:04.498Z,0
2016-08-26T02:04:04.493Z,0
2016-08-26T02:05:04.476Z,0
2016-08-26T02:06:04.485Z,0
2016-08-26T02:07:04.503Z,0
2016-08-26T02:08:04.535Z,0
2016-08-26T02:09:04.535Z,0
2016-08-26T02:10:04.520Z,0
2016-08-26T02:11:04.519Z,0
2016-08-26T02:12:04.531Z,0
2016-08-26T02:13:04.508Z,0
2016-08-26T02:14:04.535Z,0
2016-08-26T02:15:04.511Z,0
2016-08-26T02:16:04.583Z,0
2016-08-26T02:17:04.528Z,0
2016-08-26T02:18:04.519Z,0
2016-08-26T02:19:04.526Z,0
2016-08-26T02:20:04.678Z,0
2016-08-26T02:21:04.509Z,0
2016-08-26T02:22:04.501Z,0
2016-08-26T02:23:04.521Z,0
2016-08-26T02:24:04.553Z,0
2016-08-26T02:25:04.506Z,0
2016-08-26T02:26:04.584Z,0
2016-08-26T02:27:04.563Z,0
2016-08-26T02:28:04.686Z,0
2016-08-26T02:29:04.568Z,0
2016-08-26T02:30:04.596Z,0
2016-08-26T02:31:04.595Z,0
2016-08-26T02:32:04.539Z,0
2016-08-26T02:33:04.531Z,0
2016-08-26T02:34:04.537Z,0
2016-08-26T02:35:04.676Z,0
2016-08-26T02:36:04.523Z,0
2016-08-26T02:37:04.550Z,0
2016-08-26T02:38:04.550Z,0
2016-08-26T02:39:04.671Z,0
2016-08-26T02:40:04.576Z,0
2016-08-26T02:41:04.643Z,0
2016-08-26T02:42:04.594Z,0
2016-08-26T02:43:04.590Z,0
2016-08-26T02:44:04.614Z,0
2016-08-26T02:45:04.574Z,0
2016-08-26T02:46:04.555Z,0
2016-08-26T02:47:04.605Z,0
2016-08-26T02:48:04.537Z,0
2016-08-26T02:49:04.557Z,0
2016-08-26T02:50:04.553Z,0
2016-08-26T02:51:04.584Z,0
2016-08-26T02:52:04.649Z,0
2016-08-26T02:53:04.642Z,0
2016-08-26T02:54:04.552Z,0
2016-08-26T02:55:04.554Z,0
2016-08-26T02:56:04.580Z,0
2016-08-26T02:57:04.552Z,0
2016-08-26T02:58:04.540Z,0
2016-08-26T02:59:04.909Z,0
2016-08-26T03:00:04.552Z,0
2016-08-26T03:01:04.553Z,0
2016-08-26T03:02:04.538Z,0
2016-08-26T03:03:04.567Z,0
2016-08-26T03:04:04.566Z,0
2016-08-26T03:05:04.679Z,0
2016-08-26T03:06:04.572Z,0
2016-08-26T03:07:04.557Z,0
2016-08-26T03:08:04.627Z,0
2016-08-26T03:09:04.617Z,0
2016-08-26T03:10:04.584Z,0
2016-08-26T03:11:04.651Z,0
2016-08-26T03:12:04.538Z,0
2016-08-26T03:13:04.599Z,0
2016-08-26T03:14:04.618Z,0
2016-08-26T03:15:04.599Z,0
2016-08-26T03:16:04.604Z,0
2016-08-26T03:17:05.273Z,0
2016-08-26T03:18:04.645Z,0
2016-08-26T03:19:04.592Z,0
2016-08-26T03:20:04.604Z,0
2016-08-26T03:21:04.620Z,0
2016-08-26T03:22:04.601Z,0
2016-08-26T03:23:05.056Z,0
2016-08-26T03:24:04.582Z,0
2016-08-26T03:25:04.572Z,0
2016-08-26T03:26:04.630Z,0
2016-08-26T03:27:04.660Z,0
2016-08-26T03:28:04.644Z,0
2016-08-26T03:29:04.568Z,0
2016-08-26T03:30:04.662Z,0
2016-08-26T03:31:04.570Z,0
2016-08-26T03:32:04.571Z,0
2016-08-26T03:33:04.597Z,0
2016-08-26T03:34:04.574Z,0
2016-08-26T03:35:04.650Z,0
2016-08-26T03:36:04.631Z,0
2016-08-26T03:37:04.576Z,0
2016-08-26T03:38:04.631Z,0
2016-08-26T03:39:04.606Z,0
2016-08-26T03:40:04.661Z,0
2016-08-26T03:41:04.630Z,0
2016-08-26T03:42:04.571Z,0
2016-08-26T03:43:04.584Z,0
2016-08-26T03:44:04.770Z,0
2016-08-26T03:45:04.662Z,0
2016-08-26T03:46:04.615Z,0
2016-08-26T03:47:04.665Z,0
2016-08-26T03:48:04.632Z,0
2016-08-26T03:49:04.574Z,0
2016-08-26T03:50:04.667Z,0
2016-08-26T03:51:04.648Z,0
2016-08-26T03:52:04.642Z,0
2016-08-26T03:53:04.600Z,0
2016-08-26T03:54:04.615Z,4
2016-08-26T03:55:04.614Z,4
2016-08-26T03:56:04.835Z,0
2016-08-26T03:57:04.656Z,4
2016-08-26T03:58:04.607Z,4
2016-08-26T03:59:04.688Z,4
2016-08-26T04:00:04.786Z,4
2016-08-26T04:01:04.621Z,4
2016-08-26T04:02:04.602Z,8
2016-08-26T04:03:04.591Z,8
2016-08-26T04:04:04.707Z,8
2016-08-26T04:05:04.664Z,12
2016-08-26T04:06:04.638Z,16
2016-08-26T04:07:04.639Z,12
2016-08-26T04:08:04.643Z,20
2016-08-26T04:09:04.606Z,20
2016-08-26T04:10:04.616Z,24
2016-08-26T04:11:04.637Z,32
2016-08-26T04:12:04.646Z,32
2016-08-26T04:13:04.636Z,40
2016-08-26T04:14:04.644Z,44
2016-08-26T04:15:04.678Z,52
2016-08-26T04:16:04.630Z,56
2016-08-26T04:17:04.622Z,68
2016-08-26T04:18:04.670Z,80
2016-08-26T04:19:04.694Z,88
2016-08-26T04:20:04.670Z,100
2016-08-26T04:21:04.628Z,112
2016-08-26T04:22:04.758Z,128
2016-08-26T04:23:04.754Z,140
2016-08-26T04:24:04.635Z,156
2016-08-26T04:25:04.614Z,172
2016-08-26T04:26:04.751Z,192
2016-08-26T04:27:04.701Z,212
2016-08-26T04:28:04.632Z,236
2016-08-26T04:29:04.677Z,256
2016-08-26T04:30:04.623Z,276
2016-08-26T04:31:04.644Z,304
2016-08-26T04:32:04.634Z,328
2016-08-26T04:33:04.640Z,360
2016-08-26T04:34:04.694Z,392
2016-08-26T04:35:04.681Z,428
2016-08-26T04:36:04.617Z,460
2016-08-26T04:37:04.622Z,492
2016-08-26T04:38:04.714Z,532
2016-08-26T04:39:04.740Z,564
2016-08-26T04:40:04.729Z,604
2016-08-26T04:41:04.768Z,644
2016-08-26T04:42:04.680Z,688
2016-08-26T04:43:04.751Z,736
2016-08-26T04:44:04.715Z,780
2016-08-26T04:45:04.665Z,828
2016-08-26T04:46:04.666Z,888
2016-08-26T04:47:05.310Z,948
2016-08-26T04:48:04.671Z,996
2016-08-26T04:49:04.669Z,1036
2016-08-26T04:50:04.651Z,1080
2016-08-26T04:51:04.650Z,1120
2016-08-26T04:52:04.640Z,1168
2016-08-26T04:53:04.948Z,1228
2016-08-26T04:54:04.650Z,1288
2016-08-26T04:55:04.683Z,1340
2016-08-26T04:56:04.651Z,1396
2016-08-26T04:57:04.653Z,1452
2016-08-26T04:58:04.764Z,1504
2016-08-26T04:59:04.653Z,1548
2016-08-26T05:00:04.665Z,1592
2016-08-26T05:01:04.669Z,1636
2016-08-26T05:02:04.912Z,1692
2016-08-26T05:03:04.679Z,1740
2016-08-26T05:04:04.832Z,1800
2016-08-26T05:05:04.714Z,1864
2016-08-26T05:06:04.679Z,1932
2016-08-26T05:07:04.767Z,1984
2016-08-26T05:08:04.732Z,2020
2016-08-26T05:09:04.701Z,2052
2016-08-26T05:10:04.703Z,2084
2016-08-26T05:11:04.973Z,2120
2016-08-26T05:12:04.672Z,2156
2016-08-26T05:13:04.694Z,2196
2016-08-26T05:14:04.669Z,2216
2016-08-26T05:15:04.704Z,2244
2016-08-26T05:16:04.651Z,2272
2016-08-26T05:17:04.685Z,2296
2016-08-26T05:18:04.666Z,2316
2016-08-26T05:19:04.747Z,2356
2016-08-26T05:20:04.962Z,2384
2016-08-26T05:21:04.680Z,2412
2016-08-26T05:22:04.696Z,2436
2016-08-26T05:23:04.715Z,2484
2016-08-26T05:24:04.682Z,2508
2016-08-26T05:25:04.668Z,2524
2016-08-26T05:26:04.760Z,2536
2016-08-26T05:27:04.679Z,2544
2016-08-26T05:28:04.743Z,2572
2016-08-26T05:29:04.691Z,2612
2016-08-26T05:30:04.685Z,2712
2016-08-26T05:31:04.707Z,2812
2016-08-26T05:32:04.700Z,2928
2016-08-26T05:33:04.680Z,3100
2016-08-26T05:34:04.682Z,3232
2016-08-26T05:35:04.690Z,3344
2016-08-26T05:36:04.710Z,3444
2016-08-26T05:37:04.749Z,3712
2016-08-26T05:38:04.682Z,3872
2016-08-26T05:39:04.687Z,3848
2016-08-26T05:40:04.702Z,3752
2016-08-26T05:41:04.703Z,3660
2016-08-26T05:42:04.701Z,3560
2016-08-26T05:43:04.713Z,3460
2016-08-26T05:44:04.829Z,3388
2016-08-26T05:45:04.746Z,3336
2016-08-26T05:46:04.737Z,3324
2016-08-26T05:47:04.809Z,3312
2016-08-26T05:48:04.717Z,3220
2016-08-26T05:49:04.694Z,3060
2016-08-26T05:50:04.701Z,3228
2016-08-26T05:51:04.757Z,3192
2016-08-26T05:52:04.677Z,3148
2016-08-26T05:53:04.713Z,3084
2016-08-26T05:54:04.702Z,3144
2016-08-26T05:55:04.744Z,3164
2016-08-26T05:56:04.712Z,3188
2016-08-26T05:57:04.851Z,3240
2016-08-26T05:58:04.699Z,3312
2016-08-26T05:59:04.793Z,3416
2016-08-26T06:00:04.724Z,3544
2016-08-26T06:01:04.720Z,3688
2016-08-26T06:02:04.727Z,3836
2016-08-26T06:03:04.716Z,4024
2016-08-26T06:04:04.734Z,4248
2016-08-26T06:05:04.729Z,4376
2016-08-26T06:06:04.748Z,4452
2016-08-26T06:07:04.711Z,4628
2016-08-26T06:08:04.715Z,4704
2016-08-26T06:09:04.797Z,4740
2016-08-26T06:10:04.795Z,4784
2016-08-26T06:11:04.713Z,4812
2016-08-26T06:12:04.713Z,4832
2016-08-26T06:13:04.729Z,4796
2016-08-26T06:14:04.715Z,4700
2016-08-26T06:15:04.734Z,4588
2016-08-26T06:16:04.728Z,4496
2016-08-26T06:17:04.722Z,4448
2016-08-26T06:18:04.731Z,4396
2016-08-26T06:19:04.755Z,4312
2016-08-26T06:20:04.703Z,4336
2016-08-26T06:21:04.745Z,4404
2016-08-26T06:22:04.730Z,4872
2016-08-26T06:23:04.705Z,4996
2016-08-26T06:24:04.728Z,5104
2016-08-26T06:25:04.707Z,5184
2016-08-26T06:26:04.733Z,5228
2016-08-26T06:27:04.715Z,5224
2016-08-26T06:28:04.743Z,5236
2016-08-26T06:29:04.742Z,5232
2016-08-26T06:30:04.719Z,5164
2016-08-26T06:31:04.736Z,5128
2016-08-26T06:32:04.791Z,5180
2016-08-26T06:33:04.772Z,5204
2016-08-26T06:34:04.745Z,5148
2016-08-26T06:35:04.769Z,5404
2016-08-26T06:36:04.747Z,5568
2016-08-26T06:37:04.738Z,5668
2016-08-26T06:38:04.733Z,5900
2016-08-26T06:39:04.765Z,6100
2016-08-26T06:40:04.712Z,6200
2016-08-26T06:41:04.731Z,6452
2016-08-26T06:42:04.766Z,6596
2016-08-26T06:43:04.732Z,6684
2016-08-26T06:44:04.745Z,6676
2016-08-26T06:45:04.764Z,6792
2016-08-26T06:46:04.792Z,6888
2016-08-26T06:47:04.776Z,7012
2016-08-26T06:48:04.756Z,7164
2016-08-26T06:49:04.758Z,7300
2016-08-26T06:50:04.766Z,7328
2016-08-26T06:51:04.747Z,7336
2016-08-26T06:52:04.775Z,7296
2016-08-26T06:53:04.805Z,7228
2016-08-26T06:54:04.777Z,7132
2016-08-26T06:55:04.790Z,7080
2016-08-26T06:56:04.762Z,6984
2016-08-26T06:57:04.762Z,6848
2016-08-26T06:58:04.776Z,7084
2016-08-26T06:59:04.765Z,7004
2016-08-26T07:00:04.776Z,6584
2016-08-26T07:01:04.811Z,6248
2016-08-26T07:02:04.764Z,6200
2016-08-26T07:03:04.795Z,6016
2016-08-26T07:04:04.754Z,5852
2016-08-26T07:05:04.748Z,5760
2016-08-26T07:06:04.781Z,5672
2016-08-26T07:07:04.823Z,5644
2016-08-26T07:08:04.770Z,5468
2016-08-26T07:09:04.767Z,5488
2016-08-26T07:10:04.785Z,5312
2016-08-26T07:11:04.777Z,5516
2016-08-26T07:12:04.792Z,5632
2016-08-26T07:13:04.812Z,5628
2016-08-26T07:14:04.884Z,6084
2016-08-26T07:15:04.807Z,6624
2016-08-26T07:16:04.843Z,6840
2016-08-26T07:17:04.811Z,6968
2016-08-26T07:18:04.808Z,7248
2016-08-26T07:19:04.777Z,7360
2016-08-26T07:20:04.822Z,7784
2016-08-26T07:21:04.788Z,7932
2016-08-26T07:22:04.777Z,7960
2016-08-26T07:23:04.798Z,7876
2016-08-26T07:24:04.795Z,7620
2016-08-26T07:25:04.825Z,7176
2016-08-26T07:26:04.815Z,7148
2016-08-26T07:27:04.787Z,6948
2016-08-26T07:28:04.787Z,7120
2016-08-26T07:29:04.863Z,7180
2016-08-26T07:30:04.793Z,7124
2016-08-26T07:31:04.804Z,7068
2016-08-26T07:32:04.809Z,6936
2016-08-26T07:33:04.808Z,6816
2016-08-26T07:34:04.805Z,6912
2016-08-26T07:35:04.811Z,7116
2016-08-26T07:36:04.778Z,7416
2016-08-26T07:37:04.823Z,7568
2016-08-26T07:38:04.869Z,7580
2016-08-26T07:39:04.798Z,7508
2016-08-26T07:40:04.807Z,7620
2016-08-26T07:41:04.796Z,7704
2016-08-26T07:42:04.825Z,7516
2016-08-26T07:43:04.824Z,7296
2016-08-26T07:44:04.841Z,7180
2016-08-26T07:45:04.806Z,6916
2016-08-26T07:46:04.814Z,6708
2016-08-26T07:47:04.823Z,6560
2016-08-26T07:48:04.813Z,6716
2016-08-26T07:49:04.807Z,6776
2016-08-26T07:50:04.844Z,6716
2016-08-26T07:51:04.866Z,5896
2016-08-26T07:52:04.811Z,5996
2016-08-26T07:53:04.831Z,6228
2016-08-26T07:54:04.838Z,6780
2016-08-26T07:55:04.983Z,6776
2016-08-26T07:56:04.855Z,6976
2016-08-26T07:57:04.844Z,7168
2016-08-26T07:58:04.855Z,7300
2016-08-26T07:59:04.840Z,7808
2016-08-26T08:00:04.829Z,8352
2016-08-26T08:01:04.836Z,7932
2016-08-26T08:02:04.871Z,8112
2016-08-26T08:03:04.933Z,8676
2016-08-26T08:04:04.880Z,8236
2016-08-26T08:05:04.829Z,8100
2016-08-26T08:06:04.840Z,7444
2016-08-26T08:07:04.842Z,6648
2016-08-26T08:08:04.821Z,6600
2016-08-26T08:09:05.247Z,6732
2016-08-26T08:10:04.884Z,5964
2016-08-26T08:11:04.861Z,6040
2016-08-26T08:12:04.822Z,5720
2016-08-26T08:13:04.855Z,5856
2016-08-26T08:14:06.130Z,5912
2016-08-26T08:15:05.684Z,6004
2016-08-26T08:16:04.859Z,6780
2016-08-26T08:17:04.898Z,6620
2016-08-26T08:18:04.886Z,6752
2016-08-26T08:19:04.926Z,7136
2016-08-26T08:20:04.916Z,7572
2016-08-26T08:21:04.831Z,7784
2016-08-26T08:22:04.855Z,7552
2016-08-26T08:23:04.873Z,7268
2016-08-26T08:24:05.963Z,6996
2016-08-26T08:25:05.470Z,6748
2016-08-26T08:26:04.893Z,7208
2016-08-26T08:27:05.642Z,7280
2016-08-26T08:28:04.838Z,7328
2016-08-26T08:29:04.886Z,7232
2016-08-26T08:30:05.094Z,7528
2016-08-26T08:31:04.900Z,7588
2016-08-26T08:32:04.874Z,7224
2016-08-26T08:33:04.868Z,7864
2016-08-26T08:34:04.891Z,7728
2016-08-26T08:35:04.965Z,7896
2016-08-26T08:36:04.857Z,8228
2016-08-26T08:37:04.878Z,8168
2016-08-26T08:38:04.886Z,7764
2016-08-26T08:39:05.084Z,7580
2016-08-26T08:40:05.114Z,7448
2016-08-26T08:41:04.877Z,7276
2016-08-26T08:42:04.897Z,7044
2016-08-26T08:43:04.885Z,6924
2016-08-26T08:44:05.361Z,6836
2016-08-26T08:45:04.874Z,6868
2016-08-26T08:46:04.906Z,7040
2016-08-26T08:47:04.869Z,7304
2016-08-26T08:48:04.918Z,7460
2016-08-26T08:49:05.426Z,7844
2016-08-26T08:50:04.903Z,7048
2016-08-26T08:51:04.912Z,8368
2016-08-26T08:52:04.919Z,9528
2016-08-26T08:53:04.913Z,9796
2016-08-26T08:54:05.512Z,9516
2016-08-26T08:55:05.681Z,9960
2016-08-26T08:56:04.899Z,9924
2016-08-26T08:57:04.941Z,9628
2016-08-26T08:58:04.932Z,9240
2016-08-26T08:59:05.686Z,8600
2016-08-26T09:00:04.925Z,7904
2016-08-26T09:01:04.896Z,7348
2016-08-26T09:02:04.901Z,6924
2016-08-26T09:03:05.916Z,6592
2016-08-26T09:04:04.898Z,6332
2016-08-26T09:05:04.901Z,6004
2016-08-26T09:06:04.892Z,5640
2016-08-26T09:07:04.923Z,6152
2016-08-26T09:08:04.887Z,6368
2016-08-26T09:09:04.872Z,6484
2016-08-26T09:10:04.897Z,6628
2016-08-26T09:11:04.886Z,6748
2016-08-26T09:12:04.935Z,6848
2016-08-26T09:13:04.935Z,7460
2016-08-26T09:14:05.360Z,7808
2016-08-26T09:15:04.907Z,8100
2016-08-26T09:16:04.933Z,8084
2016-08-26T09:17:04.916Z,8120
2016-08-26T09:18:04.903Z,8608
2016-08-26T09:19:05.460Z,9308
2016-08-26T09:20:04.919Z,9820
2016-08-26T09:21:05.592Z,10092
2016-08-26T09:22:05.279Z,10736
2016-08-26T09:23:05.190Z,11088
2016-08-26T09:24:05.568Z,11276
2016-08-26T09:25:05.435Z,11488
2016-08-26T09:26:04.967Z,11344
2016-08-26T09:27:04.993Z,10960
2016-08-26T09:28:04.943Z,10992
2016-08-26T09:29:05.000Z,10860
2016-08-26T09:30:05.529Z,11420
2016-08-26T09:31:05.528Z,11904
2016-08-26T09:32:05.397Z,12052
2016-08-26T09:33:04.971Z,12008
2016-08-26T09:34:05.676Z,12232
2016-08-26T09:35:04.971Z,12232
2016-08-26T09:36:05.639Z,11856
2016-08-26T09:37:05.227Z,11372
2016-08-26T09:38:04.993Z,10928
2016-08-26T09:39:04.958Z,10452
2016-08-26T09:40:04.931Z,9948
2016-08-26T09:41:04.922Z,9464
2016-08-26T09:42:05.206Z,8492
2016-08-26T09:43:04.966Z,8052
2016-08-26T09:44:05.829Z,8308
2016-08-26T09:45:05.074Z,8540
2016-08-26T09:46:05.647Z,8648
2016-08-26T09:47:05.295Z,8372
2016-08-26T09:48:04.949Z,8108
2016-08-26T09:49:04.980Z,8148
2016-08-26T09:50:05.522Z,8304
2016-08-26T09:51:05.820Z,8352
2016-08-26T09:52:05.641Z,8200
2016-08-26T09:53:05.131Z,8000
2016-08-26T09:54:05.557Z,7816
2016-08-26T09:55:05.837Z,7656
2016-08-26T09:56:05.073Z,7208
2016-08-26T09:57:04.956Z,6360
2016-08-26T09:58:05.071Z,6476
2016-08-26T09:59:04.958Z,6648
2016-08-26T10:00:04.982Z,6580
2016-08-26T10:01:04.986Z,6520
2016-08-26T10:02:04.982Z,6416
2016-08-26T10:03:04.982Z,6260
2016-08-26T10:04:05.006Z,5936
2016-08-26T10:05:04.998Z,6108
2016-08-26T10:06:04.961Z,6104
2016-08-26T10:07:04.998Z,6032
2016-08-26T10:08:05.018Z,5884
2016-08-26T10:09:05.009Z,5612
2016-08-26T10:10:04.981Z,5328
2016-08-26T10:11:05.155Z,5660
2016-08-26T10:12:05.202Z,6460
2016-08-26T10:13:05.024Z,7352
2016-08-26T10:14:04.966Z,7448
2016-08-26T10:15:05.165Z,7064
2016-08-26T10:16:05.177Z,6880
2016-08-26T10:17:05.049Z,7072
2016-08-26T10:18:08.155Z,7024
2016-08-26T10:19:05.804Z,6924
2016-08-26T10:20:41.274Z,7136
2016-08-26T10:29:38.738Z,7208
2016-08-26T10:29:48.899Z,6820
2016-08-26T10:30:48.935Z,6452
2016-08-26T10:31:48.953Z,6044
2016-08-26T10:32:48.920Z,6256
2016-08-26T10:33:49.155Z,6488
2016-08-26T10:34:49.032Z,6528
2016-08-26T10:35:49.070Z,6712
2016-08-26T10:36:48.998Z,6440
2016-08-26T10:37:48.875Z,6268
2016-08-26T10:38:48.894Z,6108
2016-08-26T10:39:48.921Z,6072
2016-08-26T10:40:48.887Z,5996
2016-08-26T10:41:48.958Z,5912
2016-08-26T10:42:48.911Z,6112
2016-08-26T10:43:48.869Z,6240
2016-08-26T10:44:48.939Z,6072
2016-08-26T10:45:48.979Z,5848
2016-08-26T10:46:48.892Z,5668
2016-08-26T10:47:48.995Z,5504
2016-08-26T10:48:48.940Z,5416
2016-08-26T10:49:48.893Z,5328
2016-08-26T10:50:48.889Z,5252
2016-08-26T10:51:48.921Z,5180
2016-08-26T10:52:48.925Z,5248
2016-08-26T10:53:48.997Z,5292
2016-08-26T10:54:48.944Z,5296
2016-08-26T10:55:48.937Z,5220
2016-08-26T10:56:48.971Z,5188
2016-08-26T10:57:48.906Z,5068
2016-08-26T10:59:08.242Z,4980
2016-08-26T11:00:11.238Z,4932
2016-08-26T11:01:26.563Z,4984
2016-08-26T11:02:42.645Z,4960
2016-08-26T11:03:07.677Z,4968
2016-08-26T11:04:11.916Z,4968
2016-08-26T11:05:48.531Z,4868
2016-08-26T11:07:11.411Z,4828
2016-08-26T11:08:35.292Z,4808
2016-08-26T11:09:57.225Z,4876
2016-08-26T11:11:18.917Z,4996
2016-08-26T11:12:41.185Z,4940
2016-08-26T11:14:04.784Z,4872
2016-08-26T11:15:28.166Z,4844
2016-08-26T11:16:49.422Z,4820
2016-08-26T11:18:11.194Z,4856
2016-08-26T11:19:27.731Z,4904
2016-08-26T11:19:45.729Z,4928
2016-08-26T11:21:27.880Z,4980
2016-08-26T11:22:44.255Z,4992
2016-08-26T11:23:59.819Z,4948
2016-08-26T11:24:46.236Z,4916
2016-08-26T11:25:31.016Z,4904
2016-08-26T11:26:30.961Z,4888
2016-08-26T11:27:30.967Z,4888
2016-08-26T11:28:30.952Z,4876
2016-08-26T11:29:30.959Z,4864
2016-08-26T11:30:30.961Z,4860
2016-08-26T11:31:30.965Z,4896
2016-08-26T11:32:30.960Z,4924
2016-08-26T11:33:30.954Z,4928
2016-08-26T11:34:30.983Z,4944
2016-08-26T11:35:30.966Z,4948
2016-08-26T11:36:30.956Z,4924
2016-08-26T11:37:30.965Z,4904
2016-08-26T11:38:31.000Z,4904
2016-08-26T11:39:31.003Z,4888
2016-08-26T11:40:30.997Z,4880
2016-08-26T11:41:30.968Z,4868
2016-08-26T11:42:30.987Z,4880
2016-08-26T11:43:30.982Z,4888
2016-08-26T11:44:30.988Z,4876
2016-08-26T11:45:31.025Z,4904
2016-08-26T11:46:30.984Z,4908
2016-08-26T11:47:31.000Z,4912
2016-08-26T11:48:31.026Z,4932
2016-08-26T11:49:30.987Z,4960
2016-08-26T11:50:31.014Z,4980
2016-08-26T11:51:30.979Z,4984
2016-08-26T11:52:30.987Z,5004
2016-08-26T11:53:31.020Z,5020
2016-08-26T11:54:30.999Z,5032
2016-08-26T11:55:31.002Z,5048
2016-08-26T11:56:31.002Z,5080
2016-08-26T11:57:30.992Z,5080
2016-08-26T11:58:30.998Z,5068
2016-08-26T11:59:30.998Z,5048
2016-08-26T12:00:30.980Z,5040
2016-08-26T12:01:30.989Z,5016
2016-08-26T12:02:31.077Z,4988
2016-08-26T12:03:31.017Z,4980
2016-08-26T12:04:31.013Z,4988
2016-08-26T12:05:31.015Z,5016
2016-08-26T12:06:30.993Z,5056
2016-08-26T12:07:31.030Z,5116
2016-08-26T12:08:31.009Z,5196
2016-08-26T12:09:31.030Z,5248
2016-08-26T12:10:31.034Z,5268
2016-08-26T12:11:30.996Z,5288
2016-08-26T12:12:31.002Z,5296
2016-08-26T12:13:31.008Z,5324
2016-08-26T12:14:31.009Z,5408
2016-08-26T12:15:31.016Z,5496
2016-08-26T12:16:31.022Z,5584
2016-08-26T12:17:31.050Z,5612
2016-08-26T12:18:31.026Z,5596
2016-08-26T12:19:31.031Z,5564
2016-08-26T12:20:31.038Z,5536
2016-08-26T12:21:31.021Z,5536
2016-08-26T12:22:31.031Z,5528
2016-08-26T12:23:31.020Z,5564
2016-08-26T12:24:31.049Z,5620
2016-08-26T12:25:31.044Z,5688
2016-08-26T12:26:31.022Z,5752
2016-08-26T12:27:31.038Z,5776
2016-08-26T12:28:31.017Z,5784
2016-08-26T12:29:31.027Z,5752
2016-08-26T12:30:31.044Z,5732
2016-08-26T12:31:31.022Z,5692
2016-08-26T12:32:31.014Z,5680
2016-08-26T12:33:31.037Z,5652
2016-08-26T12:34:31.141Z,5628
2016-08-26T12:35:31.045Z,5608
2016-08-26T12:36:31.027Z,5592
2016-08-26T12:37:31.045Z,5560
2016-08-26T12:38:31.062Z,5552
2016-08-26T12:39:31.015Z,5576
2016-08-26T12:40:31.052Z,5596
2016-08-26T12:41:31.046Z,5636
2016-08-26T12:42:31.080Z,5700
2016-08-26T12:43:31.062Z,5772
2016-08-26T12:44:31.056Z,5836
2016-08-26T12:45:31.044Z,5904
2016-08-26T12:46:31.076Z,5932
2016-08-26T12:47:31.071Z,5936
2016-08-26T12:48:31.114Z,5904
2016-08-26T12:49:31.075Z,5884
2016-08-26T12:50:31.076Z,5848
2016-08-26T12:51:31.040Z,5812
2016-08-26T12:52:31.185Z,5780
2016-08-26T12:53:31.076Z,5768
2016-08-26T12:54:36.113Z,5776
2016-08-26T12:55:31.730Z,5800
2016-08-26T12:56:31.078Z,5812
2016-08-26T12:57:31.067Z,5812
2016-08-26T12:58:31.079Z,5780
2016-08-26T12:59:31.096Z,5720
2016-08-26T13:00:31.065Z,5668
2016-08-26T13:01:31.924Z,5552
2016-08-26T13:02:31.219Z,5464
2016-08-26T13:03:31.217Z,5424
2016-08-26T13:04:31.232Z,5448
2016-08-26T13:05:31.181Z,5456
2016-08-26T13:06:31.175Z,5464
2016-08-26T13:07:31.708Z,5484
2016-08-26T13:08:31.393Z,5504
2016-08-26T13:09:31.073Z,5528
2016-08-26T13:10:31.121Z,5528
2016-08-26T13:11:31.070Z,5520
2016-08-26T13:12:31.125Z,5528
2016-08-26T13:13:31.095Z,5528
2016-08-26T13:14:31.075Z,5520
2016-08-26T13:15:31.077Z,5504
2016-08-26T13:16:31.087Z,5456
2016-08-26T13:17:31.090Z,5400
2016-08-26T13:18:31.101Z,5352
2016-08-26T13:19:31.093Z,5320
2016-08-26T13:20:31.099Z,5304
2016-08-26T13:21:31.108Z,5300
2016-08-26T13:22:31.170Z,5300
2016-08-26T13:23:31.095Z,5304
2016-08-26T13:24:31.104Z,5324
2016-08-26T13:25:31.187Z,5348
2016-08-26T13:26:31.124Z,5368
2016-08-26T13:27:31.084Z,5412
2016-08-26T13:28:31.093Z,5428
2016-08-26T13:29:31.111Z,5440
2016-08-26T13:30:31.097Z,5452
2016-08-26T13:31:31.123Z,5476
2016-08-26T13:32:31.182Z,5468
2016-08-26T13:33:31.110Z,5444
2016-08-26T13:34:31.116Z,5436
2016-08-26T13:35:31.121Z,5448
2016-08-26T13:36:31.135Z,5444
2016-08-26T13:37:31.095Z,5444
2016-08-26T13:38:31.147Z,5452
2016-08-26T13:39:31.140Z,5464
2016-08-26T13:40:31.124Z,5464
2016-08-26T13:41:31.155Z,5468
2016-08-26T13:42:31.553Z,5476
2016-08-26T13:43:31.188Z,5484
2016-08-26T13:44:31.110Z,5488
2016-08-26T13:45:31.179Z,5520
2016-08-26T13:46:31.116Z,5528
2016-08-26T13:47:31.130Z,5528
2016-08-26T13:48:31.361Z,5540
2016-08-26T13:49:31.124Z,5516
2016-08-26T13:50:31.135Z,5540
2016-08-26T13:51:31.128Z,5556
2016-08-26T13:52:31.142Z,5572
2016-08-26T13:53:31.141Z,5616
2016-08-26T13:54:31.153Z,5652
2016-08-26T13:55:31.211Z,5664
2016-08-26T13:56:31.138Z,5684